New Orleans, Louisiana
Traffic Map
Current Weather Conditions
New Orleans, Louisiana
Clear
Clear
28°
Feels Like: 32°
Wind Chill: 28° Ceiling: Unl
Heat Index: 32° Visibility: 10mi
Dew Point: 24° Wind: 7mph
Humidity: 77% Direction: 230° (SW)
Pressure: 30.02in Gusts: 0mph
Raw Report DataKNEW 310653Z AUTO 23006KT 10SM CLR 28/24 A3002 RMK AO2 SLP159 T02830239
Traffic Incident Summary
Active as of:
Severity:
Category:
InformationThere was an issue retrieving the traffic information for this location. Please try a different location or try again shortly.
Advertisements
Track Severe Weather on mobile